createdAt,value
2023-03-21T00:01:51.895Z,101237.72
2023-03-21T00:04:21.259Z,101232.66
2023-03-21T00:06:49.026Z,101232.63
2023-03-21T00:09:16.759Z,101251.19
2023-03-21T00:11:45.108Z,101248.59
2023-03-21T00:14:14.527Z,101265.72
2023-03-21T00:16:45.866Z,101253.25
2023-03-21T00:19:14.561Z,101232.22
2023-03-21T00:21:59.556Z,101216.03
2023-03-21T00:24:31.861Z,101210.88
2023-03-21T00:27:10.747Z,101206.03
2023-03-21T00:29:49.282Z,101190.72
2023-03-21T00:32:17.505Z,101179.88
2023-03-21T00:34:59.579Z,101193.16
2023-03-21T00:37:31.552Z,101194.66
2023-03-21T00:39:59.284Z,101191.75
2023-03-21T00:42:27.149Z,101211.97
2023-03-21T00:44:54.862Z,101200.72
2023-03-21T00:47:25.370Z,101215.91
2023-03-21T00:49:53.537Z,101209.56
2023-03-21T00:52:30.804Z,101204.34
2023-03-21T00:55:03.431Z,101211.94
2023-03-21T00:57:38.668Z,101218.06
2023-03-21T01:00:10.270Z,101201.13
2023-03-21T01:02:38.599Z,101188.06
2023-03-21T01:05:07.120Z,101187.28
2023-03-21T01:07:34.907Z,101185.75
2023-03-21T01:10:04.082Z,101176.28
2023-03-21T01:12:31.795Z,101185.00
2023-03-21T01:14:59.582Z,101197.44
2023-03-21T01:17:27.297Z,101177.94
2023-03-21T01:19:55.059Z,101187.44
2023-03-21T01:22:22.793Z,101167.16
2023-03-21T01:24:55.564Z,101160.41
2023-03-21T01:27:29.565Z,101163.97
2023-03-21T01:29:57.829Z,101143.28
2023-03-21T01:32:26.441Z,101115.19
2023-03-21T01:34:54.248Z,101115.34
2023-03-21T01:37:22.701Z,101130.06
2023-03-21T01:39:50.456Z,101145.09
2023-03-21T01:42:18.241Z,101153.31
2023-03-21T01:44:56.694Z,101146.19
2023-03-21T01:47:24.472Z,101155.50
2023-03-21T01:49:56.461Z,101149.88
2023-03-21T01:52:43.338Z,101158.91
2023-03-21T01:55:15.430Z,101165.53
2023-03-21T01:58:02.461Z,101171.63
2023-03-21T02:00:36.478Z,101157.72
2023-03-21T02:03:15.267Z,101143.16
2023-03-21T02:05:53.342Z,101142.78
2023-03-21T02:08:25.861Z,101139.09
2023-03-21T02:11:01.284Z,101097.00
2023-03-21T02:13:29.249Z,101091.94
2023-03-21T02:16:02.949Z,101104.00
2023-03-21T02:18:39.635Z,101114.34
2023-03-21T02:21:30.276Z,101099.94
2023-03-21T02:24:17.355Z,101132.19
2023-03-21T02:27:03.969Z,101119.41
2023-03-21T02:30:05.609Z,101112.78
2023-03-21T02:32:51.328Z,101103.38
2023-03-21T02:35:41.538Z,101108.06
2023-03-21T02:38:23.711Z,101100.09
2023-03-21T02:40:56.045Z,101090.69
2023-03-21T02:43:35.311Z,101077.34
2023-03-21T02:46:09.736Z,101059.19
2023-03-21T02:48:50.727Z,101052.81
2023-03-21T02:51:23.255Z,101034.81
2023-03-21T02:54:23.680Z,101038.09
2023-03-21T02:56:45.660Z,101045.09
2023-03-21T02:59:15.781Z,101050.66
2023-03-21T03:01:43.584Z,101056.63
2023-03-21T03:04:22.489Z,101055.72
2023-03-21T03:07:06.961Z,101068.97
2023-03-21T03:09:49.508Z,101089.78
2023-03-21T03:12:26.882Z,101081.06
2023-03-21T03:15:05.243Z,101069.94
2023-03-21T03:17:46.425Z,101065.22
2023-03-21T03:20:40.498Z,101067.47
2023-03-21T03:23:17.761Z,101085.50
2023-03-21T03:25:52.524Z,101073.22
2023-03-21T03:28:24.364Z,101067.81
2023-03-21T03:31:07.913Z,101057.63
2023-03-21T03:33:40.195Z,101043.19
2023-03-21T03:36:21.555Z,101043.47
2023-03-21T03:38:58.374Z,101043.31
2023-03-21T03:41:31.886Z,101052.88
2023-03-21T03:44:04.815Z,101064.22
2023-03-21T03:46:37.557Z,101066.59
2023-03-21T03:49:10.552Z,101066.09
2023-03-21T03:51:44.884Z,101064.72
2023-03-21T03:54:15.815Z,101072.88
2023-03-21T03:56:45.202Z,101070.03
2023-03-21T03:59:12.964Z,101058.50
2023-03-21T04:01:41.428Z,101054.47
2023-03-21T04:04:13.177Z,101078.97
2023-03-21T04:06:41.485Z,101056.22
2023-03-21T04:09:19.256Z,101060.94
2023-03-21T04:11:50.032Z,101090.06
2023-03-21T04:14:18.121Z,101111.84
2023-03-21T04:16:45.848Z,101127.19
2023-03-21T04:19:13.686Z,101117.09
2023-03-21T04:21:41.513Z,101092.06
2023-03-21T04:24:09.893Z,101114.47
2023-03-21T04:26:38.162Z,101128.41
2023-03-21T04:29:07.502Z,101114.41
2023-03-21T04:31:36.051Z,101107.88
2023-03-21T04:34:09.706Z,101128.28
2023-03-21T04:36:42.979Z,101133.53
2023-03-21T04:39:13.125Z,101112.06
2023-03-21T04:41:41.041Z,101108.53
2023-03-21T04:44:11.787Z,101105.81
2023-03-21T04:46:40.280Z,101130.16
2023-03-21T04:49:08.618Z,101134.22
2023-03-21T04:51:36.655Z,101120.47
2023-03-21T04:54:05.943Z,101123.47
2023-03-21T04:56:33.854Z,101137.91
2023-03-21T04:59:04.555Z,101125.88
2023-03-21T05:01:34.018Z,101107.81
2023-03-21T05:04:03.526Z,101126.50
2023-03-21T05:06:32.057Z,101154.94
2023-03-21T05:09:01.600Z,101167.25
2023-03-21T05:11:30.787Z,101183.09
2023-03-21T05:13:59.068Z,101195.84
2023-03-21T05:16:30.520Z,101203.84
2023-03-21T05:19:03.830Z,101206.38
2023-03-21T05:21:34.175Z,101190.34
2023-03-21T05:24:03.744Z,101177.72
2023-03-21T05:26:31.508Z,101187.72
2023-03-21T05:28:59.249Z,101222.19
2023-03-21T05:31:27.026Z,101241.69
2023-03-21T05:33:54.809Z,101261.72
2023-03-21T05:36:24.015Z,101251.88
2023-03-21T05:38:51.937Z,101243.22
2023-03-21T05:41:21.334Z,101261.72
2023-03-21T05:43:49.109Z,101255.75
2023-03-21T05:46:16.867Z,101264.97
2023-03-21T05:48:44.625Z,101277.94
2023-03-21T05:51:12.395Z,101291.13
2023-03-21T05:53:41.668Z,101316.53
2023-03-21T05:56:10.596Z,101285.53
2023-03-21T05:58:40.331Z,101280.34
2023-03-21T06:01:08.610Z,101270.75
2023-03-21T06:03:36.709Z,101297.28
2023-03-21T06:06:04.765Z,101313.84
2023-03-21T06:08:32.793Z,101328.66
2023-03-21T06:11:02.102Z,101324.41
2023-03-21T06:13:31.365Z,101297.41
2023-03-21T06:15:59.138Z,101311.56
2023-03-21T06:18:28.066Z,101314.22
2023-03-21T06:20:57.412Z,101279.75
2023-03-21T06:23:25.218Z,101320.19
2023-03-21T06:25:53.026Z,101327.06
2023-03-21T06:28:22.164Z,101310.63
2023-03-21T06:30:49.874Z,101302.81
2023-03-21T06:33:17.663Z,101298.88
2023-03-21T06:35:45.516Z,101308.22
2023-03-21T06:38:13.309Z,101313.50
2023-03-21T06:40:41.018Z,101340.28
2023-03-21T06:43:08.818Z,101341.38
2023-03-21T06:45:38.079Z,101327.69
2023-03-21T06:48:09.103Z,101344.38
2023-03-21T06:50:37.248Z,101325.75
2023-03-21T06:53:05.290Z,101332.72
2023-03-21T06:55:33.013Z,101356.97
2023-03-21T06:58:00.817Z,101360.66
2023-03-21T07:00:28.916Z,101349.44
2023-03-21T07:02:58.107Z,101332.84
2023-03-21T07:05:26.075Z,101350.00
2023-03-21T07:07:53.793Z,101334.91
2023-03-21T07:10:21.563Z,101336.34
2023-03-21T07:12:49.321Z,101335.38
2023-03-21T07:15:17.490Z,101342.66
2023-03-21T07:17:45.258Z,101393.28
2023-03-21T07:20:14.590Z,101389.19
2023-03-21T07:22:42.486Z,101380.25
2023-03-21T07:25:11.110Z,101381.25
2023-03-21T07:27:40.896Z,101410.47
2023-03-21T07:30:10.807Z,101387.41
2023-03-21T07:32:39.005Z,101381.75
2023-03-21T07:35:07.893Z,101352.09
2023-03-21T07:37:38.130Z,101351.22
2023-03-21T07:40:10.522Z,101359.81
2023-03-21T07:42:38.552Z,101384.16
2023-03-21T07:45:08.404Z,101371.13
2023-03-21T07:47:36.640Z,101352.44
2023-03-21T07:50:05.139Z,101356.72
2023-03-21T07:52:33.178Z,101351.69
2023-03-21T07:55:02.274Z,101349.16
2023-03-21T07:57:30.009Z,101338.22
2023-03-21T07:59:57.783Z,101355.91
2023-03-21T08:02:25.682Z,101356.84
2023-03-21T08:04:53.541Z,101390.75
2023-03-21T08:07:21.259Z,101382.94
2023-03-21T08:09:49.046Z,101402.06
2023-03-21T08:12:18.204Z,101389.81
2023-03-21T08:14:46.196Z,101369.38
2023-03-21T08:17:13.919Z,101349.22
2023-03-21T08:19:42.000Z,101578.69
2023-03-21T08:22:10.921Z,101510.09
2023-03-21T08:24:38.694Z,101486.81
2023-03-21T08:27:06.482Z,101470.22
2023-03-21T08:29:40.389Z,101435.59
2023-03-21T08:32:08.129Z,101424.50
2023-03-21T08:34:36.504Z,101436.44
2023-03-21T08:37:04.394Z,101447.34
2023-03-21T08:39:32.252Z,101409.03
2023-03-21T08:42:00.001Z,101411.28
2023-03-21T08:44:27.792Z,101379.41
2023-03-21T08:46:56.876Z,101358.50
2023-03-21T08:49:24.618Z,101385.13
2023-03-21T08:51:56.868Z,101417.44
2023-03-21T08:54:24.824Z,101405.63
2023-03-21T08:56:52.770Z,101398.06
2023-03-21T08:59:20.520Z,101372.91
2023-03-21T09:01:48.305Z,101410.06
2023-03-21T09:04:18.975Z,101384.69
2023-03-21T09:06:48.799Z,101372.19
2023-03-21T09:09:16.925Z,101377.16
2023-03-21T09:11:44.921Z,101363.66
2023-03-21T09:14:12.886Z,101336.84
2023-03-21T09:16:41.250Z,101316.91
2023-03-21T09:19:09.641Z,101336.03
2023-03-21T09:21:38.941Z,101355.69
2023-03-21T09:24:07.304Z,101326.31
2023-03-21T09:26:35.614Z,101307.09
2023-03-21T09:29:04.928Z,101310.03
2023-03-21T09:31:33.087Z,101343.03
2023-03-21T09:34:01.136Z,101311.00
2023-03-21T09:36:32.525Z,101275.59
2023-03-21T09:39:04.133Z,101254.03
2023-03-21T09:41:59.298Z,101241.97
2023-03-21T09:44:37.945Z,101229.56
2023-03-21T09:47:20.667Z,101185.00
2023-03-21T09:49:54.665Z,101181.19
2023-03-21T09:52:28.978Z,101153.19
2023-03-21T09:54:58.345Z,101109.69
2023-03-21T09:57:33.102Z,101136.22
2023-03-21T10:00:11.303Z,101157.69
2023-03-21T10:02:41.544Z,101157.63
2023-03-21T10:05:17.741Z,101123.75
2023-03-21T10:07:51.980Z,101126.97
2023-03-21T10:10:26.572Z,101119.38
2023-03-21T10:12:56.157Z,101088.53
2023-03-21T10:15:26.635Z,101072.47
2023-03-21T10:18:00.876Z,101077.47
2023-03-21T10:20:31.930Z,101104.69
2023-03-21T10:23:02.185Z,101109.28
2023-03-21T10:25:36.019Z,101112.94
2023-03-21T10:28:07.158Z,101113.44
2023-03-21T10:30:42.244Z,101119.38
2023-03-21T10:33:14.353Z,101092.69
2023-03-21T10:35:46.093Z,101066.41
2023-03-21T10:38:17.772Z,101050.44
2023-03-21T10:40:47.352Z,101046.50
2023-03-21T10:43:19.756Z,101005.78
2023-03-21T10:45:49.008Z,101040.06
2023-03-21T10:48:17.052Z,101005.50
2023-03-21T10:50:49.570Z,101005.22
2023-03-21T10:53:20.386Z,100991.75
2023-03-21T10:55:55.646Z,101006.44
2023-03-21T10:58:27.893Z,100979.16
2023-03-21T11:00:59.104Z,101010.19
2023-03-21T11:03:31.325Z,101026.84
2023-03-21T11:06:03.360Z,101010.38
2023-03-21T11:08:31.978Z,100995.47
2023-03-21T11:11:04.478Z,101007.72
2023-03-21T11:13:38.905Z,101038.81
2023-03-21T11:16:09.543Z,101016.31
2023-03-21T11:18:43.412Z,100983.22
2023-03-21T11:21:13.742Z,100946.88
2023-03-21T11:23:46.892Z,100963.56
2023-03-21T11:26:24.120Z,100971.38
2023-03-21T11:28:52.600Z,100977.16
2023-03-21T11:31:20.961Z,100952.00
2023-03-21T11:33:53.588Z,100930.44
2023-03-21T11:36:36.271Z,100910.66
2023-03-21T11:39:15.438Z,100901.84
2023-03-21T11:41:49.116Z,100930.81
2023-03-21T11:44:32.083Z,100969.22
2023-03-21T11:47:00.803Z,100962.34
2023-03-21T11:49:29.801Z,100959.78
2023-03-21T11:52:08.012Z,100927.31
2023-03-21T11:54:49.702Z,100895.78
2023-03-21T11:57:30.854Z,100900.16
2023-03-21T12:00:10.902Z,100912.72
2023-03-21T12:03:04.747Z,100900.13
2023-03-21T12:05:36.438Z,100895.81
2023-03-21T12:08:10.108Z,100906.91
2023-03-21T12:10:45.224Z,100896.59
2023-03-21T12:13:34.511Z,100879.50
2023-03-21T12:16:17.063Z,100854.09
2023-03-21T12:19:00.283Z,100871.69
2023-03-21T12:21:34.873Z,100870.03
2023-03-21T12:24:07.589Z,100843.66
2023-03-21T12:26:43.185Z,100842.84
2023-03-21T12:29:27.163Z,100837.19
2023-03-21T12:32:07.846Z,100840.41
2023-03-21T12:35:03.629Z,100847.94
2023-03-21T12:37:38.588Z,100835.81
2023-03-21T12:40:18.188Z,100847.22
2023-03-21T12:43:18.706Z,100855.91
2023-03-21T12:45:52.210Z,100818.66
2023-03-21T12:48:25.713Z,100809.09
2023-03-21T12:50:57.189Z,100822.97
2023-03-21T12:53:47.347Z,100837.91
2023-03-21T12:56:22.020Z,100871.06
2023-03-21T12:58:56.222Z,100880.34
2023-03-21T13:01:26.452Z,100854.09
2023-03-21T13:04:15.890Z,100871.25
2023-03-21T13:06:46.616Z,100883.66
2023-03-21T13:09:23.312Z,100889.25
2023-03-21T13:12:00.596Z,100886.13
2023-03-21T13:14:35.094Z,100909.16
2023-03-21T13:17:07.988Z,100946.81
2023-03-21T13:19:39.984Z,100958.66
2023-03-21T13:22:12.435Z,100951.94
2023-03-21T13:24:43.747Z,100968.16
2023-03-21T13:27:24.735Z,100977.09
2023-03-21T13:29:55.460Z,100989.75
2023-03-21T13:32:30.977Z,100972.13
2023-03-21T13:35:00.475Z,100981.44
2023-03-21T13:37:32.242Z,100983.69
2023-03-21T13:40:09.257Z,100993.31
2023-03-21T13:42:45.033Z,101065.03
2023-03-21T13:45:24.216Z,101017.16
2023-03-21T13:47:55.645Z,101009.31
2023-03-21T13:50:50.754Z,101003.72
2023-03-21T13:53:33.961Z,100998.38
2023-03-21T13:56:25.914Z,101037.13
2023-03-21T13:59:02.037Z,101028.19
2023-03-21T14:01:37.900Z,100992.34
2023-03-21T14:04:13.447Z,100978.25
2023-03-21T14:06:47.526Z,100991.13
2023-03-21T14:09:23.218Z,100982.19
2023-03-21T14:11:54.705Z,100938.13
2023-03-21T14:14:29.542Z,100967.66
2023-03-21T14:16:57.371Z,100963.16
2023-03-21T14:19:32.851Z,100949.13
2023-03-21T14:22:00.652Z,100924.63
2023-03-21T14:24:28.413Z,100884.31
2023-03-21T14:26:56.866Z,100851.06
2023-03-21T14:29:27.431Z,100872.72
2023-03-21T14:31:56.979Z,100860.06
2023-03-21T14:34:26.152Z,100843.53
2023-03-21T14:36:58.651Z,100860.59
2023-03-21T14:39:29.308Z,100837.16
2023-03-21T14:42:01.891Z,100833.81
2023-03-21T14:44:44.094Z,100845.91
2023-03-21T14:47:21.348Z,100816.28
2023-03-21T14:49:50.827Z,100795.16
2023-03-21T14:52:24.906Z,100846.66
2023-03-21T14:54:53.588Z,100871.66
2023-03-21T14:57:24.913Z,100867.28
2023-03-21T14:59:55.873Z,100811.03
2023-03-21T15:02:28.398Z,100811.16
2023-03-21T15:04:58.850Z,100811.69
2023-03-21T15:07:30.324Z,100802.31
2023-03-21T15:10:00.881Z,100794.84
2023-03-21T15:12:28.830Z,100797.72
2023-03-21T15:14:57.359Z,100823.97
2023-03-21T15:17:26.943Z,100809.84
2023-03-21T15:19:54.934Z,100814.59
2023-03-21T15:22:33.452Z,100820.84
2023-03-21T15:25:05.813Z,100811.66
2023-03-21T15:27:38.508Z,100832.25
2023-03-21T15:30:07.577Z,100784.84
2023-03-21T15:32:38.278Z,100822.31
2023-03-21T15:35:09.255Z,100800.94
2023-03-21T15:37:39.321Z,100778.31
2023-03-21T15:40:17.495Z,100810.69
2023-03-21T15:42:45.421Z,100808.16
2023-03-21T15:45:21.229Z,100823.50
2023-03-21T15:47:54.931Z,100827.16
2023-03-21T15:50:27.952Z,100827.91
2023-03-21T15:53:00.414Z,100826.69
2023-03-21T15:55:30.858Z,100815.94
2023-03-21T15:58:04.793Z,100815.69
2023-03-21T16:00:38.896Z,100826.56
2023-03-21T16:03:11.787Z,100850.75
2023-03-21T16:05:39.636Z,100838.06
2023-03-21T16:08:20.257Z,100848.47
2023-03-21T16:10:48.886Z,100823.44
2023-03-21T16:13:17.472Z,100848.69
2023-03-21T16:15:45.574Z,100855.09
2023-03-21T16:18:16.016Z,100866.16
2023-03-21T16:20:46.754Z,100871.16
2023-03-21T16:23:17.317Z,100851.13
2023-03-21T16:25:45.823Z,100872.84
2023-03-21T16:28:15.863Z,100908.81
2023-03-21T16:30:43.891Z,100911.59
2023-03-21T16:33:12.300Z,100912.91
2023-03-21T16:35:40.466Z,100921.16
2023-03-21T16:38:08.245Z,100942.50
2023-03-21T16:40:40.129Z,100926.41
2023-03-21T16:43:08.783Z,100970.69
2023-03-21T16:45:37.038Z,100990.22
2023-03-21T16:48:05.537Z,101017.13
2023-03-21T16:50:34.714Z,101001.78
2023-03-21T16:53:03.280Z,101012.97
2023-03-21T16:55:32.964Z,101000.50
2023-03-21T16:58:02.531Z,101001.72
2023-03-21T17:00:31.862Z,100992.91
2023-03-21T17:03:02.419Z,101000.59
2023-03-21T17:05:31.432Z,101007.22
2023-03-21T17:08:02.157Z,101017.81
2023-03-21T17:10:32.101Z,101036.53
2023-03-21T17:13:00.196Z,101052.34
2023-03-21T17:15:29.360Z,101075.50
2023-03-21T17:17:57.145Z,101070.88
2023-03-21T17:20:30.154Z,101059.13
2023-03-21T17:22:58.194Z,101060.66
2023-03-21T17:25:27.121Z,101044.75
2023-03-21T17:27:54.914Z,101047.75
2023-03-21T17:30:24.515Z,101059.75
2023-03-21T17:32:54.233Z,101081.09
2023-03-21T17:35:23.045Z,101104.84
2023-03-21T17:37:51.844Z,101098.00
2023-03-21T17:40:22.815Z,101098.25
2023-03-21T17:42:51.766Z,101101.19
2023-03-21T17:45:20.866Z,101121.16
2023-03-21T17:47:48.683Z,101124.81
2023-03-21T17:50:20.793Z,101121.03
2023-03-21T17:52:50.663Z,101115.03
2023-03-21T17:55:21.230Z,101136.81
2023-03-21T17:57:50.132Z,101104.81
2023-03-21T18:00:21.275Z,101113.75
2023-03-21T18:02:49.142Z,101119.75
2023-03-21T18:05:18.731Z,101109.09
2023-03-21T18:08:08.667Z,101102.03
2023-03-21T18:10:34.633Z,101127.84
2023-03-21T18:13:02.408Z,101098.53
2023-03-21T18:15:30.755Z,101128.00
2023-03-21T18:17:59.049Z,101126.75
2023-03-21T18:20:50.507Z,101118.91
2023-03-21T18:23:19.245Z,101130.66
2023-03-21T18:25:47.313Z,101131.06
2023-03-21T18:28:19.417Z,101137.63
2023-03-21T18:31:07.742Z,101124.34
2023-03-21T18:33:40.267Z,101125.34
2023-03-21T18:36:14.974Z,101133.16
2023-03-21T18:38:43.134Z,101144.47
2023-03-21T18:41:11.472Z,101130.22
2023-03-21T18:46:27.489Z,101160.09
2023-03-21T18:48:55.631Z,101262.09
2023-03-21T18:51:27.675Z,101238.53
2023-03-21T18:53:55.691Z,101220.78
2023-03-21T18:57:13.178Z,101213.63
2023-03-21T18:59:11.734Z,101185.22
2023-03-21T19:01:40.155Z,101185.59
2023-03-21T19:04:29.744Z,101192.44
2023-03-21T19:06:57.593Z,101181.22
2023-03-21T19:09:31.152Z,101191.50
2023-03-21T19:11:59.317Z,101180.75
2023-03-21T19:14:27.218Z,101164.59
2023-03-21T19:17:47.175Z,101167.91
2023-03-21T19:19:44.410Z,101164.41
2023-03-21T19:22:13.730Z,101164.28
2023-03-21T19:24:41.587Z,101157.44
2023-03-21T19:27:10.271Z,101149.91
2023-03-21T19:29:38.058Z,101139.72
2023-03-21T19:32:06.534Z,101155.91
2023-03-21T19:34:34.545Z,101160.38
2023-03-21T19:37:02.809Z,101154.94
2023-03-21T19:39:31.962Z,101152.19
2023-03-21T19:42:14.982Z,101153.94
2023-03-21T19:44:44.205Z,101146.81
2023-03-21T19:47:12.061Z,101136.69
2023-03-21T19:52:29.212Z,101153.66
2023-03-21T19:54:58.328Z,101160.06
2023-03-21T19:57:26.337Z,101159.91
2023-03-21T19:59:54.893Z,101175.31
2023-03-21T20:02:35.082Z,101170.78
2023-03-21T20:05:04.168Z,101153.69
2023-03-21T20:07:32.917Z,101117.81
2023-03-21T20:10:02.192Z,101128.34
2023-03-21T20:12:30.647Z,101133.22
2023-03-21T20:15:10.405Z,101119.97
2023-03-21T20:17:44.784Z,101126.72
2023-03-21T20:20:18.254Z,101129.59
2023-03-21T20:23:07.487Z,101110.56
2023-03-21T20:25:40.333Z,101111.94
2023-03-21T20:28:23.890Z,101102.16
2023-03-21T20:30:56.761Z,101115.69
2023-03-21T20:33:25.152Z,101084.84
2023-03-21T20:38:45.664Z,101051.22
2023-03-21T20:41:15.337Z,101033.25
2023-03-21T20:46:30.998Z,101021.47
2023-03-21T20:48:59.761Z,101024.75
2023-03-21T20:54:16.024Z,100976.38
2023-03-21T20:56:45.475Z,100975.78
2023-03-21T20:59:20.919Z,100976.03
2023-03-21T21:01:51.901Z,100964.88
2023-03-21T21:04:20.469Z,100967.75
2023-03-21T21:06:48.622Z,100970.47
2023-03-21T21:09:16.589Z,100967.88
2023-03-21T21:14:35.475Z,100957.31
2023-03-21T21:17:20.981Z,100958.63
2023-03-21T21:19:51.309Z,100932.81
2023-03-21T21:22:19.092Z,100923.09
2023-03-21T21:24:46.854Z,100918.63
2023-03-21T21:27:15.937Z,100921.69
2023-03-21T21:29:47.666Z,100911.38
2023-03-21T21:32:16.733Z,100906.63
2023-03-21T21:34:44.590Z,100919.84
2023-03-21T21:37:12.410Z,100922.38
2023-03-21T21:39:40.180Z,100958.66
2023-03-21T21:42:07.998Z,100958.41
2023-03-21T21:44:37.529Z,100974.50
2023-03-21T21:47:08.558Z,100941.75
2023-03-21T21:49:36.537Z,100920.16
2023-03-21T21:52:05.978Z,100937.13
2023-03-21T21:54:35.003Z,100941.56
2023-03-21T21:57:02.916Z,100937.00
2023-03-21T21:59:30.843Z,100916.66
2023-03-21T22:01:59.950Z,100924.44
2023-03-21T22:04:28.603Z,100929.72
2023-03-21T22:06:56.454Z,100933.94
2023-03-21T22:09:24.560Z,100927.53
2023-03-21T22:11:52.294Z,100910.97
2023-03-21T22:14:20.015Z,100900.06
2023-03-21T22:16:47.759Z,100941.97
2023-03-21T22:19:16.877Z,100981.41
2023-03-21T22:21:44.618Z,100976.22
2023-03-21T22:24:12.334Z,101015.06
2023-03-21T22:26:40.177Z,101022.13
2023-03-21T22:29:08.247Z,101019.31
2023-03-21T22:31:38.734Z,101034.50
2023-03-21T22:34:06.574Z,101049.09
2023-03-21T22:36:35.725Z,101055.81
2023-03-21T22:39:03.694Z,101065.78
2023-03-21T22:41:31.443Z,101053.91
2023-03-21T22:43:59.168Z,101056.22
2023-03-21T22:46:27.604Z,101064.63
2023-03-21T22:48:55.411Z,101076.19
2023-03-21T22:51:23.370Z,101075.72
2023-03-21T22:53:52.639Z,101070.06
2023-03-21T22:56:20.353Z,101067.78
2023-03-21T22:58:48.096Z,101080.03
2023-03-21T23:01:15.880Z,101087.22
2023-03-21T23:03:43.644Z,101095.63
2023-03-21T23:06:11.374Z,101101.00
2023-03-21T23:08:39.108Z,101093.63
2023-03-21T23:11:09.633Z,101100.16
2023-03-21T23:13:37.503Z,101094.81
2023-03-21T23:16:05.696Z,101098.06
2023-03-21T23:18:33.775Z,101088.41
2023-03-21T23:21:01.819Z,101076.19
2023-03-21T23:23:29.564Z,101069.81
2023-03-21T23:25:57.884Z,101034.94
2023-03-21T23:28:27.034Z,101031.25
2023-03-21T23:30:55.054Z,101035.75
2023-03-21T23:33:22.842Z,101031.50
2023-03-21T23:35:51.255Z,101034.34
2023-03-21T23:38:19.007Z,101011.47
2023-03-21T23:40:46.733Z,101008.59
2023-03-21T23:43:14.454Z,100983.59
2023-03-21T23:45:44.138Z,100979.03
2023-03-21T23:48:11.871Z,100971.19
2023-03-21T23:50:39.757Z,100985.00
2023-03-21T23:53:07.631Z,100987.63
2023-03-21T23:55:38.665Z,100975.78
2023-03-21T23:58:09.203Z,100966.06
